Time;durP1;ratioP1;P1;durP2;ratioP2;P2;SDS_P1;SDS_P2;PMS_P1;PMS_P2;Temp;Humidity;BMP_temperature;BMP_pressure;BME280_temperature;BME280_humidity;BME280_pressure;Samples;Min_cycle;Max_cycle;Signal;HPM_P1;HPM_P2
2022/04/28 00:02:09;;;;;;;0.65;0.65;;;10.30;99.90;;;;;;4436841;32;20180;-67
2022/04/28 00:04:35;;;;;;;1.75;0.50;;;10.20;99.90;;;;;;4437765;32;20156;-68
2022/04/28 00:07:00;;;;;;;0.30;0.30;;;10.00;99.90;;;;;;4435087;32;20053;-67
2022/04/28 00:09:26;;;;;;;1.05;0.70;;;9.90;99.90;;;;;;4423045;32;20068;-67
2022/04/28 00:11:52;;;;;;;0.93;0.73;;;9.80;99.90;;;;;;4437701;32;20069;-68
2022/04/28 00:14:18;;;;;;;0.40;0.40;;;9.90;99.90;;;;;;4437631;32;20064;-67
2022/04/28 00:16:43;;;;;;;0.77;0.73;;;10.00;99.90;;;;;;4436681;32;20077;-67
2022/04/28 00:19:09;;;;;;;0.50;0.50;;;10.00;99.90;;;;;;4438237;32;20061;-67
2022/04/28 00:21:34;;;;;;;0.60;0.60;;;10.00;99.90;;;;;;4436647;32;20077;-67
2022/04/28 00:24:00;;;;;;;0.77;0.77;;;10.00;99.90;;;;;;4439757;32;20655;-67
2022/04/28 00:26:25;;;;;;;3.22;1.02;;;9.90;99.90;;;;;;4435746;32;20583;-68
2022/04/28 00:28:51;;;;;;;0.40;0.40;;;9.90;99.90;;;;;;4434346;32;20077;-68
2022/04/28 00:31:16;;;;;;;0.62;0.60;;;9.90;99.90;;;;;;4431332;32;20078;-68
2022/04/28 00:33:42;;;;;;;0.40;0.40;;;9.80;99.90;;;;;;4441305;32;20129;-67
2022/04/28 00:36:08;;;;;;;2.03;0.88;;;9.80;99.90;;;;;;4420743;32;20089;-67
2022/04/28 00:38:34;;;;;;;0.30;0.30;;;9.80;99.90;;;;;;4414670;32;20098;-67
2022/04/28 00:41:00;;;;;;;0.55;0.55;;;9.80;99.90;;;;;;4419630;32;20112;-68
2022/04/28 00:43:28;;;;;;;0.70;0.70;;;9.80;99.90;;;;;;4428591;32;20064;-67
2022/04/28 00:45:55;;;;;;;0.50;0.50;;;10.00;99.90;;;;;;4425062;32;20157;-67
2022/04/28 00:50:53;;;;;;;0.40;0.40;;;9.90;99.90;;;;;;4426522;32;20081;-68
2022/04/28 00:51:09;;;;;;;0.80;0.73;;;9.70;99.90;;;;;;4423370;32;20097;-67
2022/04/28 00:53:41;;;;;;;0.35;0.35;;;9.70;99.90;;;;;;4423210;32;20234;-67
2022/04/28 00:56:09;;;;;;;0.30;0.30;;;9.60;99.90;;;;;;4421727;32;20164;-67
2022/04/28 00:58:36;;;;;;;0.70;0.70;;;9.70;99.90;;;;;;4419145;32;20061;-66
2022/04/28 01:01:02;;;;;;;1.17;0.50;;;9.70;99.90;;;;;;4426161;32;20073;-67
2022/04/28 01:03:30;;;;;;;0.65;0.40;;;9.90;99.90;;;;;;4420631;32;20068;-67
2022/04/28 01:05:56;;;;;;;2.50;1.83;;;10.10;99.90;;;;;;4424125;32;20517;-66
2022/04/28 01:08:22;;;;;;;0.55;0.55;;;10.20;99.90;;;;;;4415122;32;20057;-67
2022/04/28 01:10:47;;;;;;;0.85;0.82;;;10.30;99.90;;;;;;4421178;32;20066;-67
2022/04/28 01:13:13;;;;;;;0.60;0.60;;;10.30;99.90;;;;;;4421934;32;20073;-67
2022/04/28 01:15:43;;;;;;;1.55;1.02;;;10.30;99.90;;;;;;4421840;32;20422;-66
2022/04/28 01:18:08;;;;;;;0.60;0.60;;;10.20;99.90;;;;;;4425142;32;20145;-67
2022/04/28 01:20:34;;;;;;;1.98;0.52;;;10.20;99.90;;;;;;4425934;32;20287;-67
2022/04/28 01:22:59;;;;;;;0.55;0.55;;;10.00;99.90;;;;;;4424075;32;20065;-66
2022/04/28 01:25:25;;;;;;;2.72;1.25;;;9.80;99.90;;;;;;4426383;32;20532;-66
2022/04/28 01:27:51;;;;;;;1.70;0.60;;;9.60;99.90;;;;;;4418799;32;20057;-67
2022/04/28 01:30:16;;;;;;;0.75;0.60;;;9.40;99.90;;;;;;4423558;32;20049;-67
2022/04/28 01:32:42;;;;;;;1.33;0.65;;;9.30;99.90;;;;;;4419308;32;20129;-67
2022/04/28 01:35:08;;;;;;;29.05;1.10;;;9.20;99.90;;;;;;4425379;32;20097;-66
2022/04/28 01:37:34;;;;;;;0.45;0.45;;;9.20;99.90;;;;;;4433722;32;20527;-67
2022/04/28 01:39:59;;;;;;;4.05;1.73;;;9.50;99.90;;;;;;4431399;32;20181;-66
2022/04/28 01:42:25;;;;;;;6.32;2.55;;;9.40;99.90;;;;;;4437509;32;20123;-67
2022/04/28 01:44:51;;;;;;;1.60;0.82;;;9.40;99.90;;;;;;4436147;32;20072;-67
2022/04/28 01:47:17;;;;;;;0.60;0.60;;;9.50;99.90;;;;;;4434644;32;20065;-67
2022/04/28 01:49:44;;;;;;;0.70;0.70;;;9.50;99.90;;;;;;4438339;32;20092;-66
2022/04/28 01:54:58;;;;;;;0.40;0.40;;;9.50;99.90;;;;;;4428032;32;20090;-66
2022/04/28 01:57:25;;;;;;;1.17;0.82;;;9.30;99.90;;;;;;4435363;32;20136;-66
2022/04/28 01:59:51;;;;;;;4.47;1.65;;;9.20;99.90;;;;;;4435544;32;20134;-67
2022/04/28 02:02:17;;;;;;;1.37;1.00;;;8.90;99.90;;;;;;4433492;32;20098;-66
2022/04/28 02:04:42;;;;;;;0.45;0.45;;;8.70;99.90;;;;;;4434416;32;20459;-68
2022/04/28 02:07:08;;;;;;;0.73;0.50;;;8.60;99.90;;;;;;4423737;32;20436;-68
2022/04/28 02:09:34;;;;;;;1.60;1.12;;;8.60;99.90;;;;;;4428329;32;20082;-67
2022/04/28 02:11:59;;;;;;;0.95;0.93;;;8.80;99.90;;;;;;4424435;32;20065;-66
2022/04/28 02:14:25;;;;;;;0.60;0.60;;;8.90;99.90;;;;;;4438079;32;20077;-66
2022/04/28 02:16:50;;;;;;;1.77;0.93;;;8.80;99.90;;;;;;4432310;32;20080;-66
2022/04/28 02:19:16;;;;;;;1.60;0.90;;;8.90;99.90;;;;;;4438461;32;20077;-67
2022/04/28 02:21:42;;;;;;;4.37;1.12;;;8.90;99.90;;;;;;4425024;32;20172;-67
2022/04/28 02:24:07;;;;;;;0.60;0.60;;;9.00;99.90;;;;;;4437268;32;20603;-67
2022/04/28 02:26:33;;;;;;;0.45;0.45;;;9.00;99.90;;;;;;4437304;32;20138;-67
2022/04/28 02:28:59;;;;;;;1.02;1.02;;;8.90;99.90;;;;;;4435536;32;20073;-67
2022/04/28 02:31:24;;;;;;;6.87;2.05;;;9.00;99.90;;;;;;4433771;32;20074;-67
2022/04/28 02:33:50;;;;;;;0.70;0.65;;;9.10;99.90;;;;;;4434236;32;20146;-66
2022/04/28 02:36:15;;;;;;;0.75;0.50;;;9.10;99.90;;;;;;4437239;32;20076;-66
2022/04/28 02:38:41;;;;;;;1.08;0.65;;;8.90;99.90;;;;;;4430884;32;20081;-67
2022/04/28 02:41:07;;;;;;;2.20;0.73;;;8.60;99.90;;;;;;4433128;32;20073;-66
2022/04/28 02:43:33;;;;;;;0.50;0.50;;;8.40;99.90;;;;;;4437073;32;20073;-67
2022/04/28 02:45:59;;;;;;;0.50;0.50;;;8.20;99.90;;;;;;4433571;32;20103;-66
2022/04/28 02:48:25;;;;;;;0.40;0.40;;;8.20;99.90;;;;;;4437594;32;20131;-67
2022/04/28 02:50:51;;;;;;;2.15;0.80;;;8.20;99.90;;;;;;4436345;32;20108;-67
2022/04/28 02:53:17;;;;;;;1.12;1.02;;;8.20;99.90;;;;;;4436124;32;20076;-67
2022/04/28 02:55:43;;;;;;;1.55;0.88;;;8.30;99.90;;;;;;4438146;32;20499;-67
2022/04/28 02:58:09;;;;;;;4.30;1.92;;;8.50;99.90;;;;;;4438096;32;20057;-67
2022/04/28 03:00:36;;;;;;;0.47;0.47;;;8.60;99.90;;;;;;4439247;32;20097;-67
2022/04/28 03:03:02;;;;;;;0.65;0.60;;;8.60;99.90;;;;;;4434413;32;20069;-67
2022/04/28 03:05:27;;;;;;;0.60;0.60;;;8.70;99.90;;;;;;4434083;32;20524;-67
2022/04/28 03:10:54;;;;;;;1.27;0.90;;;8.50;99.90;;;;;;4424762;32;20085;-67
2022/04/28 03:13:22;;;;;;;0.50;0.50;;;8.40;99.90;;;;;;4438892;32;20061;-67
2022/04/28 03:15:48;;;;;;;0.80;0.80;;;8.50;99.90;;;;;;4417011;32;20072;-67
2022/04/28 03:18:15;;;;;;;0.60;0.60;;;8.40;99.90;;;;;;4439210;32;20076;-67
2022/04/28 03:20:41;;;;;;;0.70;0.70;;;8.20;99.90;;;;;;4442713;32;20117;-67
2022/04/28 03:23:07;;;;;;;5.47;0.50;;;8.10;99.90;;;;;;4442081;32;20080;-67
2022/04/28 03:25:32;;;;;;;1.12;1.00;;;8.10;99.90;;;;;;4441535;32;20057;-67
2022/04/28 03:27:58;;;;;;;1.70;0.85;;;8.20;99.90;;;;;;4440351;32;20085;-67
2022/04/28 03:30:24;;;;;;;3.90;0.65;;;8.10;99.90;;;;;;4441062;32;20105;-67
2022/04/28 03:32:49;;;;;;;0.47;0.47;;;7.90;99.90;;;;;;4440173;32;21370;-67
2022/04/28 03:35:15;;;;;;;0.37;0.37;;;7.80;99.90;;;;;;4431580;32;20081;-67
2022/04/28 03:37:44;;;;;;;0.50;0.50;;;7.80;99.90;;;;;;4441235;32;20338;-67
2022/04/28 03:40:10;;;;;;;0.40;0.40;;;7.80;99.90;;;;;;4430543;32;20069;-67
2022/04/28 03:42:36;;;;;;;0.30;0.30;;;7.80;99.90;;;;;;4429090;32;20078;-67
2022/04/28 03:45:02;;;;;;;0.40;0.40;;;7.70;99.90;;;;;;4438278;32;20057;-67
2022/04/28 03:47:36;;;;;;;4.87;1.12;;;7.80;99.90;;;;;;4440742;32;20423;-67
2022/04/28 03:50:03;;;;;;;2.75;0.80;;;7.80;99.90;;;;;;4438521;32;20094;-68
2022/04/28 03:52:28;;;;;;;0.47;0.47;;;7.80;99.90;;;;;;4440705;32;20504;-67
2022/04/28 03:54:54;;;;;;;0.40;0.40;;;8.00;99.90;;;;;;4436444;32;20116;-67
2022/04/28 03:57:19;;;;;;;0.45;0.45;;;8.10;99.90;;;;;;4439326;32;20081;-68
2022/04/28 03:59:45;;;;;;;0.40;0.40;;;8.20;99.90;;;;;;4441022;32;20112;-67
2022/04/28 04:02:11;;;;;;;1.10;0.47;;;8.20;99.90;;;;;;4440978;32;20084;-67
2022/04/28 04:04:37;;;;;;;3.67;0.93;;;7.90;99.90;;;;;;4431884;32;20069;-67
2022/04/28 04:07:02;;;;;;;0.52;0.52;;;7.70;99.90;;;;;;4438413;32;20076;-66
2022/04/28 04:09:28;;;;;;;0.88;0.77;;;7.70;99.90;;;;;;4415997;32;20061;-67
2022/04/28 04:11:54;;;;;;;0.55;0.55;;;7.80;99.90;;;;;;4435706;32;20109;-67
2022/04/28 04:14:19;;;;;;;1.05;0.68;;;8.00;99.90;;;;;;4427887;32;20053;-67
2022/04/28 04:16:44;;;;;;;6.07;1.15;;;7.80;99.90;;;;;;4437326;32;20168;-66
2022/04/28 04:19:10;;;;;;;0.35;0.35;;;7.70;99.90;;;;;;4440984;32;20403;-66
2022/04/28 04:21:36;;;;;;;2.08;0.77;;;7.80;99.90;;;;;;4426430;32;20101;-66
2022/04/28 04:24:02;;;;;;;26.92;1.50;;;7.80;99.90;;;;;;4383126;32;20722;-66
2022/04/28 04:26:27;;;;;;;1.20;0.77;;;7.80;99.90;;;;;;4369675;32;20574;-67
2022/04/28 04:28:53;;;;;;;6.65;1.85;;;7.90;99.90;;;;;;4394062;32;20136;-67
2022/04/28 04:32:24;;;;;;;1.85;0.82;;;7.80;99.90;;;;;;4411717;32;20532;-67
2022/04/28 04:34:04;;;;;;;0.43;0.43;;;8.00;99.90;;;;;;4426206;32;20604;-68
2022/04/28 04:36:30;;;;;;;0.77;0.77;;;8.10;99.90;;;;;;4431573;32;20069;-68
2022/04/28 04:38:55;;;;;;;0.75;0.65;;;8.10;99.90;;;;;;4423245;32;20069;-67
2022/04/28 04:41:21;;;;;;;2.65;1.55;;;8.20;99.90;;;;;;4422815;32;20128;-68
2022/04/28 04:43:46;;;;;;;0.60;0.60;;;8.30;99.90;;;;;;4428319;32;20179;-68
2022/04/28 04:46:12;;;;;;;2.08;0.93;;;8.30;99.90;;;;;;4426446;32;20409;-67
2022/04/28 04:48:38;;;;;;;0.40;0.40;;;8.30;99.90;;;;;;4426644;32;20093;-67
2022/04/28 04:51:03;;;;;;;3.10;0.75;;;8.30;99.90;;;;;;4432694;32;20150;-68
2022/04/28 04:53:29;;;;;;;5.72;1.30;;;8.00;99.90;;;;;;4383007;32;20061;-67
2022/04/28 04:55:55;;;;;;;0.30;0.30;;;7.90;99.90;;;;;;4411763;32;20555;-68
2022/04/28 04:58:20;;;;;;;0.50;0.50;;;7.90;99.90;;;;;;4427571;32;20592;-68
2022/04/28 05:00:46;;;;;;;0.40;0.40;;;8.00;99.90;;;;;;4420365;32;20477;-68
2022/04/28 05:03:12;;;;;;;0.57;0.57;;;8.10;99.90;;;;;;4394983;32;21467;-67
2022/04/28 05:05:38;;;;;;;2.00;1.12;;;8.10;99.90;;;;;;4359648;32;20157;-67
2022/04/28 05:08:04;;;;;;;0.40;0.40;;;8.10;99.90;;;;;;4359810;32;20101;-67
2022/04/28 05:10:30;;;;;;;0.90;0.80;;;8.20;99.90;;;;;;4355383;32;20526;-67
2022/04/28 05:12:56;;;;;;;1.17;0.75;;;8.30;99.90;;;;;;4391820;32;20476;-67
2022/04/28 05:15:21;;;;;;;0.50;0.50;;;8.50;99.90;;;;;;4398628;32;20109;-67
2022/04/28 05:17:47;;;;;;;0.65;0.65;;;8.60;99.90;;;;;;4380081;32;20215;-67
2022/04/28 05:20:13;;;;;;;6.03;1.65;;;8.80;99.90;;;;;;4308932;32;20362;-67
2022/04/28 05:22:39;;;;;;;1.20;1.10;;;8.90;99.90;;;;;;4291567;32;20425;-67
2022/04/28 05:25:06;;;;;;;0.50;0.50;;;9.00;99.90;;;;;;4297743;32;21037;-67
2022/04/28 05:27:31;;;;;;;1.12;0.82;;;9.20;99.90;;;;;;4360481;32;20480;-67
2022/04/28 05:29:57;;;;;;;0.77;0.57;;;9.30;99.90;;;;;;4388209;32;20506;-67
2022/04/28 05:32:25;;;;;;;0.57;0.57;;;9.40;99.90;;;;;;4332476;32;20430;-67
2022/04/28 05:34:50;;;;;;;0.62;0.62;;;9.40;99.90;;;;;;4326413;32;20915;-67
2022/04/28 05:37:16;;;;;;;1.85;1.23;;;9.40;99.90;;;;;;4313746;32;20077;-67
2022/04/28 05:39:42;;;;;;;4.18;0.73;;;9.60;99.90;;;;;;4345789;32;20296;-67
2022/04/28 05:42:09;;;;;;;2.65;1.02;;;9.70;99.90;;;;;;4374072;32;21195;-68
2022/04/28 05:45:42;;;;;;;1.83;1.42;;;9.80;99.90;;;;;;4390593;32;20509;-67
2022/04/28 05:47:22;;;;;;;0.70;0.55;;;10.00;99.90;;;;;;4383730;32;20129;-67
2022/04/28 05:49:47;;;;;;;0.30;0.30;;;10.10;99.90;;;;;;4378245;32;20277;-66
2022/04/28 05:52:13;;;;;;;0.85;0.65;;;10.10;99.90;;;;;;4382044;32;20097;-65
2022/04/28 05:54:40;;;;;;;3.85;0.98;;;10.10;99.90;;;;;;4395224;32;20469;-67
2022/04/28 05:57:06;;;;;;;0.95;0.75;;;10.20;99.90;;;;;;4395356;32;20146;-66
2022/04/28 05:59:31;;;;;;;0.60;0.60;;;10.40;99.90;;;;;;4403479;32;20632;-66
2022/04/28 06:01:57;;;;;;;0.52;0.52;;;10.50;99.90;;;;;;4371045;32;20686;-67
2022/04/28 06:04:22;;;;;;;0.52;0.52;;;10.50;99.90;;;;;;4354889;32;20106;-67
2022/04/28 06:06:48;;;;;;;0.43;0.43;;;10.50;99.90;;;;;;4367992;32;20222;-66
2022/04/28 06:09:13;;;;;;;0.77;0.75;;;10.70;99.90;;;;;;4383464;32;20445;-66
2022/04/28 06:11:39;;;;;;;2.15;0.90;;;10.90;99.90;;;;;;4381444;32;20238;-66
2022/04/28 06:14:04;;;;;;;2.42;0.40;;;11.00;99.90;;;;;;4381791;32;20557;-66
2022/04/28 06:16:30;;;;;;;1.00;0.65;;;11.10;99.90;;;;;;4395295;32;20094;-68
2022/04/28 06:18:55;;;;;;;0.55;0.55;;;11.10;99.90;;;;;;4377416;32;21236;-64
2022/04/28 06:21:20;;;;;;;1.75;0.68;;;11.10;99.90;;;;;;4367614;32;20525;-66
2022/04/28 06:23:46;;;;;;;1.17;0.70;;;11.20;99.90;;;;;;4389464;32;20694;-68
2022/04/28 06:26:12;;;;;;;1.30;0.70;;;11.20;99.90;;;;;;4389564;32;20481;-67
2022/04/28 06:28:37;;;;;;;0.75;0.52;;;11.30;99.90;;;;;;4395371;32;20106;-67
2022/04/28 06:31:03;;;;;;;1.95;1.10;;;11.20;99.90;;;;;;4382965;32;20377;-67
2022/04/28 06:33:28;;;;;;;2.65;1.00;;;11.30;99.90;;;;;;4355378;32;20380;-66
2022/04/28 06:35:55;;;;;;;0.43;0.43;;;11.40;99.90;;;;;;4367321;32;20416;-66
2022/04/28 06:38:20;;;;;;;1.27;0.82;;;11.20;99.90;;;;;;4403263;32;20109;-66
2022/04/28 06:40:46;;;;;;;4.95;1.42;;;11.20;99.90;;;;;;4392180;32;20814;-67
2022/04/28 06:43:12;;;;;;;0.45;0.45;;;11.20;99.90;;;;;;4403109;32;20183;-67
2022/04/28 06:46:11;;;;;;;1.05;0.95;;;11.20;99.90;;;;;;4383666;32;21046;-67
2022/04/28 06:48:23;;;;;;;0.62;0.57;;;11.40;99.90;;;;;;4378028;32;20110;-66
2022/04/28 06:50:49;;;;;;;0.70;0.70;;;11.40;99.90;;;;;;4381811;32;20116;-66
2022/04/28 06:53:14;;;;;;;0.52;0.52;;;11.50;99.90;;;;;;4400141;32;20670;-66
2022/04/28 06:55:40;;;;;;;0.70;0.70;;;11.50;99.90;;;;;;4401425;32;20805;-68
2022/04/28 06:58:05;;;;;;;0.43;0.43;;;11.60;99.90;;;;;;4413752;32;20084;-65
2022/04/28 07:00:31;;;;;;;0.50;0.50;;;11.70;99.90;;;;;;4397748;32;20438;-66
2022/04/28 07:02:56;;;;;;;0.95;0.62;;;11.70;99.90;;;;;;4388679;32;20458;-67
2022/04/28 07:05:22;;;;;;;0.62;0.60;;;11.80;99.90;;;;;;4386879;32;20263;-66
2022/04/28 07:07:47;;;;;;;1.15;0.95;;;11.90;99.90;;;;;;4406455;32;20659;-67
2022/04/28 07:10:13;;;;;;;3.30;1.67;;;11.90;99.90;;;;;;4418673;32;20179;-67
2022/04/28 07:12:40;;;;;;;2.92;0.60;;;12.00;99.90;;;;;;4419197;32;20064;-66
2022/04/28 07:15:06;;;;;;;0.40;0.40;;;12.10;99.90;;;;;;4411212;32;20090;-67
2022/04/28 07:17:31;;;;;;;0.43;0.43;;;12.30;99.90;;;;;;4415779;32;20109;-68
2022/04/28 07:19:57;;;;;;;2.42;0.62;;;12.40;99.90;;;;;;4391055;32;20252;-67
2022/04/28 07:22:23;;;;;;;0.40;0.40;;;12.50;99.90;;;;;;4399090;32;20418;-66
2022/04/28 07:24:49;;;;;;;1.30;0.80;;;12.50;99.90;;;;;;4397420;32;20613;-67
2022/04/28 07:27:14;;;;;;;3.90;1.55;;;12.60;99.90;;;;;;4408770;32;20367;-66
2022/04/28 07:29:40;;;;;;;3.15;1.75;;;12.70;99.90;;;;;;4410663;32;20185;-67
2022/04/28 07:32:07;;;;;;;0.28;0.28;;;12.60;99.90;;;;;;4383097;32;20152;-67
2022/04/28 07:34:32;;;;;;;10.75;0.68;;;12.70;99.90;;;;;;4370086;32;20438;-67
2022/04/28 07:36:58;;;;;;;1.20;1.00;;;12.70;99.90;;;;;;4392182;32;101742;-68
2022/04/28 07:39:23;;;;;;;0.50;0.50;;;12.80;99.90;;;;;;4409135;32;20121;-67
2022/04/28 07:41:49;;;;;;;1.75;0.60;;;12.90;99.90;;;;;;4407859;32;20653;-66
2022/04/28 07:44:14;;;;;;;0.70;0.65;;;13.10;99.90;;;;;;4409044;32;20215;-66
2022/04/28 07:46:40;;;;;;;0.55;0.55;;;13.10;99.90;;;;;;4413748;32;20089;-66
2022/04/28 07:49:05;;;;;;;4.32;2.22;;;13.20;99.90;;;;;;4396269;32;20101;-66
2022/04/28 07:51:31;;;;;;;2.30;1.00;;;13.40;99.90;;;;;;4374551;32;20745;-66
2022/04/28 07:53:56;;;;;;;0.93;0.57;;;13.40;99.90;;;;;;4405626;32;20158;-66
2022/04/28 07:56:25;;;;;;;0.60;0.60;;;13.40;99.90;;;;;;4405613;32;20082;-66
2022/04/28 07:58:50;;;;;;;0.85;0.68;;;13.30;99.90;;;;;;4410311;32;20090;-67
2022/04/28 08:01:16;;;;;;;1.23;0.60;;;13.40;99.90;;;;;;4403291;32;20372;-67
2022/04/28 08:03:42;;;;;;;2.90;0.98;;;13.40;99.90;;;;;;4387484;32;20116;-67
2022/04/28 08:06:08;;;;;;;0.60;0.60;;;13.30;99.90;;;;;;4393106;32;20207;-67
2022/04/28 08:08:35;;;;;;;1.75;1.00;;;13.40;99.90;;;;;;4407932;32;20524;-67
2022/04/28 08:11:00;;;;;;;0.47;0.47;;;13.40;99.90;;;;;;4406341;32;20085;-67
2022/04/28 08:13:26;;;;;;;2.75;1.25;;;13.50;99.90;;;;;;4416000;32;20074;-68
2022/04/28 08:15:54;;;;;;;0.50;0.50;;;13.70;99.90;;;;;;4415652;32;20098;-67
2022/04/28 08:18:20;;;;;;;1.42;0.77;;;13.90;99.90;;;;;;4413008;32;20113;-66
2022/04/28 08:20:45;;;;;;;8.10;0.73;;;14.20;99.90;;;;;;4374855;32;20141;-66
2022/04/28 08:23:11;;;;;;;21.33;2.40;;;14.30;99.90;;;;;;4393134;32;20081;-66
2022/04/28 08:25:37;;;;;;;3.62;0.65;;;14.30;99.90;;;;;;4403488;32;20583;-67
2022/04/28 08:28:03;;;;;;;1.02;0.88;;;14.40;99.90;;;;;;4409182;32;20097;-68
2022/04/28 08:30:28;;;;;;;0.47;0.47;;;14.60;99.90;;;;;;4396857;32;20080;-67
2022/04/28 08:32:54;;;;;;;3.62;1.17;;;14.80;99.90;;;;;;4372279;32;20102;-66
2022/04/28 08:35:19;;;;;;;0.50;0.50;;;14.70;99.90;;;;;;4368780;32;20211;-66
2022/04/28 08:37:45;;;;;;;2.37;1.15;;;14.70;99.90;;;;;;4387773;32;20081;-66
2022/04/28 08:40:11;;;;;;;0.65;0.65;;;14.80;99.90;;;;;;4381815;32;20139;-67
2022/04/28 08:42:37;;;;;;;0.20;0.20;;;15.10;99.90;;;;;;4393879;32;21611;-67
2022/04/28 08:45:04;;;;;;;0.68;0.50;;;15.30;99.90;;;;;;4397902;32;20065;-67
2022/04/28 08:47:30;;;;;;;0.45;0.45;;;15.40;99.90;;;;;;4396333;32;20584;-66
2022/04/28 08:49:56;;;;;;;0.40;0.40;;;15.50;98.70;;;;;;4370190;32;20455;-66
2022/04/28 08:52:23;;;;;;;4.22;1.60;;;15.60;98.80;;;;;;4386449;32;20208;-66
2022/04/28 08:54:52;;;;;;;1.80;1.12;;;15.60;98.20;;;;;;4398310;32;20702;-67
2022/04/28 08:57:18;;;;;;;0.55;0.40;;;15.60;97.90;;;;;;4386924;32;20180;-66
2022/04/28 08:59:44;;;;;;;1.48;0.75;;;15.70;97.90;;;;;;4394846;32;20127;-66
2022/04/28 09:02:12;;;;;;;3.95;1.10;;;15.90;97.20;;;;;;4385628;32;20293;-66
2022/04/28 09:04:39;;;;;;;0.57;0.57;;;15.90;97.00;;;;;;4353878;32;20852;-66
2022/04/28 09:07:07;;;;;;;0.50;0.50;;;16.20;97.70;;;;;;4384613;32;20097;-66
2022/04/28 09:09:33;;;;;;;1.92;0.82;;;16.20;96.30;;;;;;4401194;32;21156;-67
2022/04/28 09:12:00;;;;;;;3.80;0.70;;;16.40;96.50;;;;;;4403420;32;20509;-67
2022/04/28 09:14:26;;;;;;;0.52;0.52;;;16.40;95.20;;;;;;4404243;32;20073;-67
2022/04/28 09:16:56;;;;;;;0.93;0.77;;;16.40;96.00;;;;;;4401692;32;21400;-66
2022/04/28 09:19:25;;;;;;;0.50;0.50;;;16.50;94.60;;;;;;4379153;32;20077;-66
2022/04/28 09:21:54;;;;;;;0.40;0.40;;;16.20;95.00;;;;;;4366365;32;20105;-65
2022/04/28 09:24:21;;;;;;;0.40;0.40;;;16.10;95.90;;;;;;4373104;32;20399;-67
2022/04/28 09:26:48;;;;;;;2.10;1.27;;;16.20;95.50;;;;;;4376889;32;20107;-65
2022/04/28 09:29:15;;;;;;;1.62;0.95;;;15.90;95.80;;;;;;4386701;32;20104;-67
2022/04/28 09:31:44;;;;;;;0.40;0.40;;;16.00;96.40;;;;;;4365139;32;20113;-66
2022/04/28 09:34:12;;;;;;;2.80;1.23;;;16.40;95.00;;;;;;4372898;32;20356;-66
2022/04/28 09:36:39;;;;;;;1.52;0.60;;;16.70;94.20;;;;;;4368411;32;20967;-67
2022/04/28 09:39:07;;;;;;;0.28;0.28;;;16.60;93.60;;;;;;4366220;32;20089;-67
2022/04/28 09:42:39;;;;;;;0.30;0.30;;;16.50;93.40;;;;;;4344424;32;20156;-67
2022/04/28 09:44:20;;;;;;;1.98;0.68;;;16.40;93.60;;;;;;4362065;32;20536;-67
2022/04/28 09:46:47;;;;;;;0.40;0.40;;;16.40;93.20;;;;;;4375531;32;20843;-67
2022/04/28 09:49:17;;;;;;;0.50;0.50;;;16.10;92.20;;;;;;4345622;32;20287;-67
2022/04/28 09:51:44;;;;;;;0.40;0.40;;;15.90;93.50;;;;;;4352491;32;20098;-67
2022/04/28 09:54:12;;;;;;;0.55;0.55;;;16.10;93.80;;;;;;4375676;32;20857;-67
2022/04/28 09:56:40;;;;;;;0.50;0.50;;;16.70;93.30;;;;;;4375389;32;20093;-67
2022/04/28 09:59:08;;;;;;;0.40;0.40;;;17.10;92.50;;;;;;4369556;32;20116;-67
2022/04/28 10:01:35;;;;;;;1.00;0.68;;;17.40;92.00;;;;;;4359245;32;20188;-67
2022/04/28 10:04:01;;;;;;;0.40;0.40;;;17.80;92.10;;;;;;4368681;32;20391;-67
2022/04/28 10:06:31;;;;;;;0.40;0.40;;;18.10;90.70;;;;;;4367378;32;20738;-67
2022/04/28 10:08:58;;;;;;;0.40;0.40;;;17.90;90.40;;;;;;4363045;32;20155;-68
2022/04/28 10:11:26;;;;;;;0.40;0.40;;;17.70;89.60;;;;;;4382577;32;20369;-67
2022/04/28 10:13:52;;;;;;;0.45;0.45;;;17.70;90.20;;;;;;4376675;32;21390;-67
2022/04/28 10:16:21;;;;;;;2.67;0.80;;;17.60;90.60;;;;;;4375807;32;20089;-67
2022/04/28 10:18:52;;;;;;;1.02;0.52;;;17.80;90.10;;;;;;4370868;32;20294;-67
2022/04/28 10:21:22;;;;;;;0.50;0.50;;;17.70;91.00;;;;;;4358286;32;20086;-68
2022/04/28 10:32:22;;;;;;;1.25;1.02;;;17.60;91.10;;;;;;4367512;32;20809;-68
2022/04/28 10:32:56;;;;;;;1.00;0.70;;;17.10;93.10;;;;;;4366371;32;20151;-67
2022/04/28 10:35:50;;;;;;;0.52;0.50;;;17.00;93.40;;;;;;4359475;32;20332;-67
2022/04/28 10:38:21;;;;;;;1.05;0.60;;;16.90;93.70;;;;;;4379490;32;20800;-67
2022/04/28 10:40:59;;;;;;;2.00;1.35;;;16.90;92.40;;;;;;4398006;32;20081;-67
2022/04/28 10:43:34;;;;;;;0.68;0.68;;;17.20;92.20;;;;;;4401895;32;20645;-68
2022/04/28 10:46:22;;;;;;;0.40;0.40;;;17.80;92.10;;;;;;4389075;32;20109;-68
2022/04/28 10:48:53;;;;;;;0.40;0.40;;;18.70;90.00;;;;;;4388793;32;21124;-67
2022/04/28 10:51:22;;;;;;;0.40;0.40;;;18.70;88.80;;;;;;4377807;32;20144;-69
2022/04/28 10:54:06;;;;;;;0.40;0.40;;;18.40;88.10;;;;;;4368862;32;20089;-66
2022/04/28 10:56:54;;;;;;;0.40;0.40;;;18.10;90.30;;;;;;4378167;32;20084;-66
2022/04/28 10:59:29;;;;;;;0.52;0.50;;;17.70;90.50;;;;;;4374114;32;20097;-66
2022/04/28 11:01:56;;;;;;;1.30;0.57;;;17.60;90.70;;;;;;4384355;32;20255;-66
2022/04/28 11:04:23;;;;;;;0.50;0.50;;;17.50;91.30;;;;;;4360518;32;20366;-67
2022/04/28 11:06:54;;;;;;;2.40;0.45;;;17.30;91.70;;;;;;4384108;32;20657;-67
2022/04/28 11:09:32;;;;;;;0.35;0.35;;;17.30;91.80;;;;;;4395121;32;20838;-68
2022/04/28 11:12:08;;;;;;;0.77;0.77;;;17.10;91.50;;;;;;4399441;32;20110;-67
2022/04/28 11:15:03;;;;;;;0.35;0.35;;;17.00;91.30;;;;;;4391731;32;20093;-67
2022/04/28 11:17:30;;;;;;;0.40;0.40;;;16.80;92.10;;;;;;4400029;32;20109;-68
2022/04/28 11:20:00;;;;;;;0.85;0.77;;;16.90;91.50;;;;;;4383317;32;20299;-68
2022/04/28 11:22:28;;;;;;;0.82;0.77;;;17.10;90.60;;;;;;4381347;32;20535;-68
2022/04/28 11:24:54;;;;;;;0.30;0.30;;;17.70;90.10;;;;;;4385598;32;20157;-68
2022/04/28 11:27:20;;;;;;;0.43;0.43;;;18.60;90.20;;;;;;4398138;32;20687;-68
2022/04/28 11:29:49;;;;;;;0.50;0.50;;;19.10;86.30;;;;;;4395741;32;20478;-66
2022/04/28 11:32:16;;;;;;;0.30;0.30;;;18.90;86.50;;;;;;4389241;32;20389;-66
2022/04/28 11:34:44;;;;;;;2.90;0.50;;;19.10;84.20;;;;;;4383984;32;20853;-66
2022/04/28 11:37:14;;;;;;;0.35;0.35;;;19.60;84.00;;;;;;4389118;32;20097;-67
2022/04/28 11:39:43;;;;;;;0.75;0.57;;;20.00;80.00;;;;;;4386112;32;20098;-67
2022/04/28 11:42:09;;;;;;;0.43;0.43;;;20.30;80.30;;;;;;4396890;32;20622;-68
2022/04/28 11:44:43;;;;;;;1.87;0.75;;;20.30;79.80;;;;;;4381188;32;20581;-68
2022/04/28 11:47:08;;;;;;;0.20;0.20;;;20.70;76.90;;;;;;4397056;32;20076;-68
2022/04/28 11:49:38;;;;;;;2.30;1.45;;;20.20;80.80;;;;;;4383214;32;20287;-67
2022/04/28 11:52:18;;;;;;;16.05;1.02;;;19.90;81.60;;;;;;4397057;32;20450;-67
2022/04/28 11:54:44;;;;;;;1.35;0.93;;;19.50;83.40;;;;;;4386576;32;20078;-67
2022/04/28 11:57:11;;;;;;;0.40;0.40;;;19.30;82.90;;;;;;4409389;32;20429;-67
2022/04/28 11:59:38;;;;;;;1.02;0.45;;;19.20;83.40;;;;;;4406699;32;20061;-67
2022/04/28 12:02:04;;;;;;;1.08;0.82;;;19.20;81.20;;;;;;4399155;32;20184;-67
2022/04/28 12:04:29;;;;;;;0.30;0.30;;;19.30;81.70;;;;;;4391835;32;20281;-67
2022/04/28 12:06:55;;;;;;;0.45;0.45;;;19.70;81.60;;;;;;4401181;32;20057;-68
2022/04/28 12:14:55;;;;;;;0.35;0.30;;;21.80;74.40;;;;;;4391904;32;20601;-67
2022/04/28 12:19:21;;;;;;;2.55;0.50;;;22.20;74.90;;;;;;4406593;32;20090;-67
2022/04/28 12:20:10;;;;;;;0.95;0.57;;;22.00;72.30;;;;;;4375730;32;20093;-67
2022/04/28 12:22:38;;;;;;;0.73;0.35;;;21.40;74.10;;;;;;4401792;32;20069;-67
2022/04/28 12:25:07;;;;;;;0.35;0.35;;;22.00;72.80;;;;;;4401900;32;20516;-67
2022/04/28 12:27:52;;;;;;;0.25;0.25;;;21.60;73.40;;;;;;4408447;32;20084;-67
2022/04/28 12:30:19;;;;;;;0.20;0.20;;;21.40;75.60;;;;;;4392788;32;20505;-67
2022/04/28 12:32:48;;;;;;;0.30;0.30;;;21.60;72.50;;;;;;4399976;32;20060;-67
2022/04/28 12:35:36;;;;;;;0.25;0.25;;;21.60;71.00;;;;;;4393725;32;20305;-66
2022/04/28 12:38:07;;;;;;;1.50;0.62;;;21.50;72.20;;;;;;4388876;32;20077;-67
2022/04/28 12:40:39;;;;;;;0.73;0.70;;;21.10;72.70;;;;;;4399159;32;20077;-67
2022/04/28 12:43:05;;;;;;;0.30;0.30;;;21.70;71.50;;;;;;4398546;32;20820;-67
2022/04/28 12:45:36;;;;;;;0.93;0.88;;;22.20;68.90;;;;;;4406339;32;20663;-67
2022/04/28 12:48:01;;;;;;;0.30;0.30;;;22.10;70.60;;;;;;4400758;32;20875;-67
2022/04/28 12:50:28;;;;;;;0.25;0.25;;;22.50;71.20;;;;;;4392314;32;20188;-67
2022/04/28 12:52:54;;;;;;;0.20;0.20;;;22.80;70.50;;;;;;4395368;32;20411;-67
2022/04/28 12:55:21;;;;;;;0.22;0.22;;;23.20;67.80;;;;;;4397844;32;20090;-67
2022/04/28 12:57:48;;;;;;;0.60;0.28;;;23.70;66.40;;;;;;4403844;32;20074;-68
2022/04/28 13:00:14;;;;;;;0.32;0.30;;;23.50;65.20;;;;;;4405542;32;20173;-67
2022/04/28 13:02:47;;;;;;;0.22;0.22;;;23.60;62.70;;;;;;4406217;32;20188;-66
2022/04/28 13:05:16;;;;;;;0.17;0.17;;;23.90;62.90;;;;;;4398241;32;20172;-69
2022/04/28 13:07:42;;;;;;;5.28;0.47;;;24.00;62.40;;;;;;4406767;32;20088;-68
2022/04/28 13:10:10;;;;;;;0.13;0.13;;;23.90;63.30;;;;;;4394236;32;20082;-68